Time;durP1;ratioP1;P1;durP2;ratioP2;P2;SDS_P1;SDS_P2;PMS_P1;PMS_P2;Temp;Humidity;BMP_temperature;BMP_pressure;BME280_temperature;BME280_humidity;BME280_pressure;Samples;Min_cycle;Max_cycle;Signal;HPM_P1;HPM_P2
2024/01/12 00:01:53;;;;;;;20.53;13.37;;;;;;;;;;5043190;28;20239;-65
2024/01/12 00:04:20;;;;;;;21.63;14.37;;;;;;;;;;5041882;28;20202;-65
2024/01/12 00:06:48;;;;;;;20.60;13.83;;;;;;;;;;5042951;28;20296;-65
2024/01/12 00:09:16;;;;;;;18.67;13.10;;;;;;;;;;5043262;28;20242;-65
2024/01/12 00:11:43;;;;;;;19.33;13.10;;;;;;;;;;5040967;28;20250;-65
2024/01/12 00:14:14;;;;;;;19.23;12.93;;;;;;;;;;5039045;28;20207;-65
2024/01/12 00:16:44;;;;;;;19.27;12.90;;;;;;;;;;5043368;28;20198;-65
2024/01/12 00:19:11;;;;;;;19.70;13.43;;;;;;;;;;5044190;28;20212;-64
2024/01/12 00:21:38;;;;;;;21.60;13.53;;;;;;;;;;5044365;28;20219;-64
2024/01/12 00:24:05;;;;;;;20.40;13.27;;;;;;;;;;5042243;28;20199;-65
2024/01/12 00:26:32;;;;;;;19.50;13.50;;;;;;;;;;5049141;28;20195;-65
2024/01/12 00:29:00;;;;;;;19.73;13.97;;;;;;;;;;5040659;28;20211;-65
2024/01/12 00:31:28;;;;;;;19.00;13.37;;;;;;;;;;5045352;28;20217;-65
2024/01/12 00:33:55;;;;;;;20.83;14.23;;;;;;;;;;5044276;28;20207;-64
2024/01/12 00:36:22;;;;;;;20.63;14.43;;;;;;;;;;5044034;28;20212;-65
2024/01/12 00:38:49;;;;;;;21.77;13.90;;;;;;;;;;5042626;28;20229;-65
2024/01/12 00:41:17;;;;;;;22.30;14.27;;;;;;;;;;5039920;28;20207;-65
2024/01/12 00:43:44;;;;;;;26.40;15.17;;;;;;;;;;5041771;28;20204;-65
2024/01/12 00:46:11;;;;;;;23.67;15.23;;;;;;;;;;5032878;28;20211;-65
2024/01/12 00:48:39;;;;;;;20.43;14.07;;;;;;;;;;5035081;28;20199;-65
2024/01/12 00:51:06;;;;;;;19.97;14.00;;;;;;;;;;5041677;28;20203;-64
2024/01/12 00:53:34;;;;;;;20.40;13.70;;;;;;;;;;5039664;28;20203;-66
2024/01/12 00:56:01;;;;;;;21.07;13.33;;;;;;;;;;5044639;28;20211;-65
2024/01/12 00:58:29;;;;;;;16.97;12.00;;;;;;;;;;5048713;28;20203;-64
2024/01/12 01:00:56;;;;;;;14.63;10.53;;;;;;;;;;5038045;28;20227;-64
2024/01/12 01:03:23;;;;;;;15.67;10.47;;;;;;;;;;5044266;28;20207;-64
2024/01/12 01:05:51;;;;;;;14.90;10.87;;;;;;;;;;5049288;28;20211;-64
2024/01/12 01:08:18;;;;;;;17.73;10.93;;;;;;;;;;5045846;28;20199;-65
2024/01/12 01:10:46;;;;;;;16.50;10.67;;;;;;;;;;5044656;28;20210;-64
2024/01/12 01:13:14;;;;;;;18.37;11.40;;;;;;;;;;5041895;28;20212;-63
2024/01/12 01:15:41;;;;;;;16.50;11.47;;;;;;;;;;5046897;28;20205;-64
2024/01/12 01:18:10;;;;;;;16.67;11.77;;;;;;;;;;5040767;28;20344;-63
2024/01/12 01:20:37;;;;;;;16.90;11.70;;;;;;;;;;5047246;28;20295;-64
2024/01/12 01:23:06;;;;;;;18.00;12.03;;;;;;;;;;5043283;28;20204;-63
2024/01/12 01:25:33;;;;;;;18.57;12.43;;;;;;;;;;5043347;28;20210;-63
2024/01/12 01:28:01;;;;;;;16.53;11.87;;;;;;;;;;5042152;28;20196;-65
2024/01/12 01:30:29;;;;;;;19.53;12.10;;;;;;;;;;5040474;28;20196;-65
2024/01/12 01:32:56;;;;;;;18.03;12.73;;;;;;;;;;5037960;28;20206;-65
2024/01/12 01:35:23;;;;;;;19.97;12.83;;;;;;;;;;5042708;28;20204;-65
2024/01/12 01:37:50;;;;;;;20.10;13.60;;;;;;;;;;5042215;28;20195;-65
2024/01/12 01:40:19;;;;;;;19.10;13.27;;;;;;;;;;5041648;28;20234;-65
2024/01/12 01:42:48;;;;;;;21.00;13.40;;;;;;;;;;5041198;28;20224;-65
2024/01/12 01:45:15;;;;;;;18.50;12.80;;;;;;;;;;5040550;28;20278;-65
2024/01/12 01:47:43;;;;;;;19.00;12.27;;;;;;;;;;5046150;28;20199;-65
2024/01/12 01:50:11;;;;;;;20.23;13.30;;;;;;;;;;5044238;28;20208;-66
2024/01/12 01:52:39;;;;;;;23.60;14.73;;;;;;;;;;5042180;28;20206;-65
2024/01/12 01:55:07;;;;;;;20.93;14.40;;;;;;;;;;5042765;28;20204;-65
2024/01/12 01:57:35;;;;;;;22.33;14.47;;;;;;;;;;5043570;28;20206;-65
2024/01/12 02:00:03;;;;;;;22.27;14.73;;;;;;;;;;5041770;28;20192;-63
2024/01/12 02:02:31;;;;;;;22.73;14.70;;;;;;;;;;5044299;28;20220;-64
2024/01/12 02:04:59;;;;;;;25.93;15.17;;;;;;;;;;5043095;28;20263;-65
2024/01/12 02:07:26;;;;;;;21.30;14.00;;;;;;;;;;5043723;28;20203;-65
2024/01/12 02:09:54;;;;;;;22.20;14.97;;;;;;;;;;5042728;28;20196;-66
2024/01/12 02:12:21;;;;;;;23.37;15.13;;;;;;;;;;5040796;28;20216;-65
2024/01/12 02:14:49;;;;;;;22.90;15.13;;;;;;;;;;5039904;28;20200;-64
2024/01/12 02:17:16;;;;;;;23.00;14.50;;;;;;;;;;5045962;28;20223;-65
2024/01/12 02:19:43;;;;;;;22.00;14.37;;;;;;;;;;5045661;28;20227;-64
2024/01/12 02:22:12;;;;;;;19.27;13.07;;;;;;;;;;5043410;28;20223;-66
2024/01/12 02:24:39;;;;;;;17.30;11.77;;;;;;;;;;5041605;28;20203;-66
2024/01/12 02:27:06;;;;;;;17.10;11.50;;;;;;;;;;5039482;28;20217;-65
2024/01/12 02:29:34;;;;;;;15.10;10.40;;;;;;;;;;5043725;28;20206;-64
2024/01/12 02:32:01;;;;;;;15.90;10.67;;;;;;;;;;5042649;28;20269;-64
2024/01/12 02:34:28;;;;;;;18.03;11.17;;;;;;;;;;5043518;28;20204;-64
2024/01/12 02:36:55;;;;;;;16.10;11.10;;;;;;;;;;5041800;28;20206;-65
2024/01/12 02:39:24;;;;;;;14.53;11.10;;;;;;;;;;5050431;28;20245;-65
2024/01/12 02:41:51;;;;;;;14.20;10.67;;;;;;;;;;5042967;28;20223;-64
2024/01/12 02:44:18;;;;;;;15.13;10.90;;;;;;;;;;5044559;28;20206;-64
2024/01/12 02:46:45;;;;;;;15.63;11.13;;;;;;;;;;5043154;28;20198;-65
2024/01/12 02:49:12;;;;;;;17.33;11.77;;;;;;;;;;5042307;28;20213;-65
2024/01/12 02:51:39;;;;;;;15.00;10.43;;;;;;;;;;5045763;28;20195;-64
2024/01/12 02:54:05;;;;;;;16.27;11.67;;;;;;;;;;5040726;28;20203;-64
2024/01/12 02:56:34;;;;;;;16.53;11.50;;;;;;;;;;5044052;28;20282;-64
2024/01/12 02:59:01;;;;;;;17.30;12.27;;;;;;;;;;5041601;28;20200;-65
2024/01/12 03:01:28;;;;;;;16.10;10.97;;;;;;;;;;5040914;28;20311;-65
2024/01/12 03:03:55;;;;;;;17.67;12.20;;;;;;;;;;5040072;28;20209;-69
2024/01/12 03:06:22;;;;;;;17.50;12.40;;;;;;;;;;5039411;28;20210;-69
2024/01/12 03:08:49;;;;;;;16.57;12.07;;;;;;;;;;5041512;28;20215;-71
2024/01/12 03:11:17;;;;;;;16.50;11.90;;;;;;;;;;5036283;28;20207;-69
2024/01/12 03:13:45;;;;;;;18.90;12.23;;;;;;;;;;5043814;28;20218;-70
2024/01/12 03:16:19;;;;;;;16.60;12.27;;;;;;;;;;5039399;28;20204;-72
2024/01/12 03:18:46;;;;;;;15.37;11.27;;;;;;;;;;5043330;28;20202;-71
2024/01/12 03:21:13;;;;;;;15.27;11.30;;;;;;;;;;5038049;28;20323;-71
2024/01/12 03:23:41;;;;;;;15.73;12.57;;;;;;;;;;5041706;28;20204;-71
2024/01/12 03:26:08;;;;;;;16.47;12.57;;;;;;;;;;5036397;28;20195;-71
2024/01/12 03:28:35;;;;;;;18.07;12.30;;;;;;;;;;5041731;28;20207;-69
2024/01/12 03:31:04;;;;;;;16.20;11.87;;;;;;;;;;5034151;28;20837;-69
2024/01/12 03:33:31;;;;;;;17.47;12.00;;;;;;;;;;5037442;28;20191;-71
2024/01/12 03:35:58;;;;;;;16.70;11.53;;;;;;;;;;5037837;28;20211;-69
2024/01/12 03:38:26;;;;;;;15.37;11.07;;;;;;;;;;5041749;28;20247;-69
2024/01/12 03:40:53;;;;;;;16.67;10.80;;;;;;;;;;5040137;28;20199;-69
2024/01/12 03:43:20;;;;;;;15.33;10.63;;;;;;;;;;5039283;28;20227;-69
2024/01/12 03:45:47;;;;;;;14.80;10.53;;;;;;;;;;5041584;28;20207;-69
2024/01/12 03:48:15;;;;;;;15.27;11.70;;;;;;;;;;5041535;28;20246;-70
2024/01/12 03:50:43;;;;;;;16.10;10.97;;;;;;;;;;5042871;28;20208;-71
2024/01/12 03:53:10;;;;;;;14.83;11.60;;;;;;;;;;5041275;28;20215;-69
2024/01/12 03:55:37;;;;;;;14.37;10.50;;;;;;;;;;5043846;28;20213;-69
2024/01/12 03:58:04;;;;;;;16.00;10.37;;;;;;;;;;5039247;28;20221;-68
2024/01/12 04:00:31;;;;;;;12.47;9.77;;;;;;;;;;5044996;28;20450;-69
2024/01/12 04:02:58;;;;;;;14.40;10.67;;;;;;;;;;5038051;28;20223;-69
2024/01/12 04:05:27;;;;;;;14.30;9.70;;;;;;;;;;5040836;28;20210;-70
2024/01/12 04:07:54;;;;;;;12.33;9.80;;;;;;;;;;5036628;28;20207;-69
2024/01/12 04:10:21;;;;;;;13.83;9.50;;;;;;;;;;5043536;28;20215;-69
2024/01/12 04:12:48;;;;;;;12.13;9.27;;;;;;;;;;5040427;28;20210;-69
2024/01/12 04:15:15;;;;;;;12.77;9.63;;;;;;;;;;5037385;28;21902;-68
2024/01/12 04:17:42;;;;;;;13.03;9.63;;;;;;;;;;5038998;28;20222;-69
2024/01/12 04:20:11;;;;;;;11.93;9.50;;;;;;;;;;5041862;28;20203;-71
2024/01/12 04:22:40;;;;;;;12.23;9.37;;;;;;;;;;5039044;28;20225;-68
2024/01/12 04:25:07;;;;;;;13.53;9.70;;;;;;;;;;5036469;28;20215;-69
2024/01/12 04:27:34;;;;;;;10.97;8.77;;;;;;;;;;5039084;28;20261;-69
2024/01/12 04:30:02;;;;;;;13.93;10.20;;;;;;;;;;5034660;28;20216;-70
2024/01/12 04:32:29;;;;;;;15.80;10.50;;;;;;;;;;5033901;28;20229;-71
2024/01/12 04:34:56;;;;;;;12.70;9.60;;;;;;;;;;5040439;28;20207;-69
2024/01/12 04:37:23;;;;;;;12.70;8.77;;;;;;;;;;5040943;28;20199;-69
2024/01/12 04:39:51;;;;;;;9.93;7.57;;;;;;;;;;5041739;28;20246;-70
2024/01/12 04:42:18;;;;;;;11.70;8.93;;;;;;;;;;5042304;28;20224;-70
2024/01/12 04:44:46;;;;;;;11.23;8.77;;;;;;;;;;5038444;28;20207;-68
2024/01/12 04:47:13;;;;;;;10.87;8.60;;;;;;;;;;5047287;28;20200;-68
2024/01/12 04:49:40;;;;;;;11.33;8.90;;;;;;;;;;5037231;28;20212;-69
2024/01/12 04:52:07;;;;;;;10.40;8.27;;;;;;;;;;5034383;28;20200;-68
2024/01/12 04:54:34;;;;;;;11.40;8.43;;;;;;;;;;5036672;28;20216;-69
2024/01/12 04:57:02;;;;;;;11.63;8.60;;;;;;;;;;5041498;28;20203;-68
2024/01/12 04:59:29;;;;;;;10.50;8.07;;;;;;;;;;5037888;28;20203;-69
2024/01/12 05:01:57;;;;;;;10.50;7.93;;;;;;;;;;5039195;28;20232;-68
2024/01/12 05:04:24;;;;;;;10.33;7.77;;;;;;;;;;5041000;28;20208;-69
2024/01/12 05:06:51;;;;;;;11.27;7.93;;;;;;;;;;5041908;28;20212;-68
2024/01/12 05:09:18;;;;;;;9.70;7.53;;;;;;;;;;5041270;28;20223;-69
2024/01/12 05:11:45;;;;;;;10.13;7.83;;;;;;;;;;5044118;28;20199;-69
2024/01/12 05:14:13;;;;;;;11.10;8.20;;;;;;;;;;5041107;28;20212;-69
2024/01/12 05:16:41;;;;;;;9.03;6.73;;;;;;;;;;5045022;28;20218;-70
2024/01/12 05:19:08;;;;;;;8.67;7.10;;;;;;;;;;5046757;28;20299;-70
2024/01/12 05:21:35;;;;;;;9.60;7.00;;;;;;;;;;5042402;28;20214;-71
2024/01/12 05:24:02;;;;;;;9.73;7.17;;;;;;;;;;5046861;28;20238;-70
2024/01/12 05:26:30;;;;;;;9.30;7.17;;;;;;;;;;5045143;28;20199;-70
2024/01/12 05:28:57;;;;;;;9.60;7.20;;;;;;;;;;5044877;28;20199;-69
2024/01/12 05:31:25;;;;;;;8.73;6.93;;;;;;;;;;5044675;28;20198;-69
2024/01/12 05:33:52;;;;;;;8.63;6.90;;;;;;;;;;5046487;28;20200;-70
2024/01/12 05:36:19;;;;;;;9.00;7.20;;;;;;;;;;5045741;28;20459;-68
2024/01/12 05:38:46;;;;;;;7.60;6.37;;;;;;;;;;5046296;28;20246;-69
2024/01/12 05:41:14;;;;;;;8.73;6.67;;;;;;;;;;5046233;28;20214;-70
2024/01/12 05:43:41;;;;;;;7.93;6.30;;;;;;;;;;5045616;28;20224;-70
2024/01/12 05:46:08;;;;;;;7.13;5.63;;;;;;;;;;5046163;28;20219;-69
2024/01/12 05:48:37;;;;;;;7.10;5.83;;;;;;;;;;5046980;28;20227;-69
2024/01/12 05:51:04;;;;;;;7.27;6.17;;;;;;;;;;5042629;28;20218;-69
2024/01/12 05:53:31;;;;;;;7.87;6.27;;;;;;;;;;5044444;28;20192;-68
2024/01/12 05:55:58;;;;;;;7.80;6.10;;;;;;;;;;5043886;28;20212;-69
2024/01/12 05:58:25;;;;;;;7.00;5.50;;;;;;;;;;5047403;28;20212;-68
2024/01/12 06:00:52;;;;;;;7.20;5.80;;;;;;;;;;5040917;28;20212;-68
2024/01/12 06:03:19;;;;;;;8.40;5.93;;;;;;;;;;5035770;28;20212;-68
2024/01/12 06:05:50;;;;;;;7.83;5.90;;;;;;;;;;5032594;28;20203;-69
2024/01/12 06:08:17;;;;;;;6.83;5.50;;;;;;;;;;5036252;28;20212;-68
2024/01/12 06:10:44;;;;;;;8.03;5.80;;;;;;;;;;5046979;28;20293;-70
2024/01/12 06:13:12;;;;;;;7.80;6.00;;;;;;;;;;5041917;28;21432;-70
2024/01/12 06:15:39;;;;;;;7.10;5.63;;;;;;;;;;5038986;28;20624;-70
2024/01/12 06:18:06;;;;;;;6.93;5.70;;;;;;;;;;5041302;28;20200;-69
2024/01/12 06:20:33;;;;;;;6.80;5.80;;;;;;;;;;5043014;28;20200;-69
2024/01/12 06:23:02;;;;;;;8.70;6.73;;;;;;;;;;5043271;28;20261;-70
2024/01/12 06:25:31;;;;;;;7.53;6.07;;;;;;;;;;5042281;28;20208;-70
2024/01/12 06:27:58;;;;;;;7.83;6.17;;;;;;;;;;5041392;28;20304;-70
2024/01/12 06:30:26;;;;;;;6.70;5.60;;;;;;;;;;5034055;28;20242;-70
2024/01/12 06:32:53;;;;;;;7.87;6.27;;;;;;;;;;5045017;28;20206;-64
2024/01/12 06:35:20;;;;;;;8.57;6.37;;;;;;;;;;5042005;28;20230;-64
2024/01/12 06:37:48;;;;;;;6.90;6.00;;;;;;;;;;5043581;28;20230;-65
2024/01/12 06:40:16;;;;;;;8.33;6.07;;;;;;;;;;5039248;28;20217;-64
2024/01/12 06:42:43;;;;;;;7.70;6.30;;;;;;;;;;5050666;28;20317;-65
2024/01/12 06:45:12;;;;;;;7.50;6.13;;;;;;;;;;5043760;28;20210;-65
2024/01/12 06:47:39;;;;;;;7.43;6.23;;;;;;;;;;5042887;28;20212;-64
2024/01/12 06:50:06;;;;;;;7.77;6.30;;;;;;;;;;5043688;28;20235;-65
2024/01/12 06:52:34;;;;;;;7.90;6.13;;;;;;;;;;5043960;28;20430;-64
2024/01/12 06:55:01;;;;;;;8.07;6.60;;;;;;;;;;5045598;28;20206;-64
2024/01/12 06:57:29;;;;;;;8.17;6.00;;;;;;;;;;5043915;28;20210;-64
2024/01/12 06:59:56;;;;;;;8.50;6.77;;;;;;;;;;5041416;28;20206;-65
2024/01/12 07:02:24;;;;;;;7.67;6.60;;;;;;;;;;5048014;28;20200;-64
2024/01/12 07:04:51;;;;;;;7.87;6.37;;;;;;;;;;5042312;28;20196;-64
2024/01/12 07:07:18;;;;;;;8.27;6.30;;;;;;;;;;5046765;28;20214;-64
2024/01/12 07:09:45;;;;;;;7.77;6.17;;;;;;;;;;5043705;28;20200;-63
2024/01/12 07:12:12;;;;;;;6.97;6.00;;;;;;;;;;5040162;28;20231;-63
2024/01/12 07:14:41;;;;;;;7.10;6.13;;;;;;;;;;5041353;28;20214;-63
2024/01/12 07:17:08;;;;;;;7.70;5.77;;;;;;;;;;5039341;28;20206;-63
2024/01/12 07:19:36;;;;;;;7.10;5.90;;;;;;;;;;5043291;28;20208;-64
2024/01/12 07:22:03;;;;;;;8.23;6.03;;;;;;;;;;5046932;28;20290;-64
2024/01/12 07:24:30;;;;;;;7.47;5.83;;;;;;;;;;5049015;28;20221;-63
2024/01/12 07:26:57;;;;;;;7.53;6.33;;;;;;;;;;5043974;28;20200;-63
2024/01/12 07:29:24;;;;;;;6.77;5.93;;;;;;;;;;5039077;28;20203;-64
2024/01/12 07:31:54;;;;;;;8.37;6.33;;;;;;;;;;5045403;28;20200;-64
2024/01/12 07:34:21;;;;;;;8.60;6.20;;;;;;;;;;5042669;28;20189;-65
2024/01/12 07:36:48;;;;;;;7.87;6.20;;;;;;;;;;5045303;28;20418;-65
2024/01/12 07:39:16;;;;;;;7.27;5.97;;;;;;;;;;5042824;28;20260;-65
2024/01/12 07:41:43;;;;;;;7.27;5.80;;;;;;;;;;5041156;28;20206;-64
2024/01/12 07:44:12;;;;;;;7.67;6.30;;;;;;;;;;5042814;28;20220;-69
2024/01/12 07:46:39;;;;;;;9.33;6.60;;;;;;;;;;5041870;28;20212;-69
2024/01/12 07:49:08;;;;;;;7.70;5.90;;;;;;;;;;5038125;28;20233;-68
2024/01/12 07:51:35;;;;;;;7.13;6.40;;;;;;;;;;5041312;28;20199;-69
2024/01/12 07:54:02;;;;;;;7.20;6.37;;;;;;;;;;5039651;28;20211;-69
2024/01/12 07:56:29;;;;;;;6.97;6.00;;;;;;;;;;5042567;28;20220;-69
2024/01/12 07:58:57;;;;;;;7.73;5.80;;;;;;;;;;5037778;28;20215;-68
2024/01/12 08:01:25;;;;;;;6.57;5.73;;;;;;;;;;5039952;28;20214;-69
2024/01/12 08:03:52;;;;;;;8.57;6.07;;;;;;;;;;5037616;28;20219;-70
2024/01/12 08:06:20;;;;;;;7.13;5.93;;;;;;;;;;5042680;28;20215;-69
2024/01/12 08:08:48;;;;;;;6.57;5.77;;;;;;;;;;5039317;28;20238;-70
2024/01/12 08:11:15;;;;;;;7.03;5.90;;;;;;;;;;5041266;28;20325;-69
2024/01/12 08:13:42;;;;;;;7.43;6.20;;;;;;;;;;5043026;28;20207;-69
2024/01/12 08:16:09;;;;;;;6.33;5.50;;;;;;;;;;5040968;28;20259;-69
2024/01/12 08:18:36;;;;;;;7.67;5.87;;;;;;;;;;5042816;28;20202;-70
2024/01/12 08:21:03;;;;;;;8.57;6.80;;;;;;;;;;5032118;28;20249;-69
2024/01/12 08:23:32;;;;;;;6.83;5.53;;;;;;;;;;5031888;28;20225;-70
2024/01/12 08:25:59;;;;;;;6.67;5.63;;;;;;;;;;5033588;28;20201;-70
2024/01/12 08:28:29;;;;;;;7.40;6.00;;;;;;;;;;5043218;28;20210;-69
2024/01/12 08:30:57;;;;;;;6.77;5.83;;;;;;;;;;5043905;28;20201;-69
2024/01/12 08:33:24;;;;;;;7.13;6.10;;;;;;;;;;5041145;28;20228;-69
2024/01/12 08:35:51;;;;;;;8.03;6.47;;;;;;;;;;5043847;28;20205;-68
2024/01/12 08:38:19;;;;;;;7.23;5.83;;;;;;;;;;5044042;28;20238;-69
2024/01/12 08:40:47;;;;;;;7.53;5.77;;;;;;;;;;5040847;28;20210;-69
2024/01/12 08:43:16;;;;;;;6.87;5.90;;;;;;;;;;5042769;28;20234;-70
2024/01/12 08:45:44;;;;;;;6.37;5.07;;;;;;;;;;5039143;28;20214;-70
2024/01/12 08:48:11;;;;;;;5.70;5.10;;;;;;;;;;5039624;28;20206;-70
2024/01/12 08:50:38;;;;;;;6.67;5.60;;;;;;;;;;5043737;28;20214;-68
2024/01/12 08:53:05;;;;;;;6.17;5.10;;;;;;;;;;5045031;28;20202;-64
2024/01/12 08:55:32;;;;;;;5.07;4.57;;;;;;;;;;5050832;28;20199;-64
2024/01/12 08:58:01;;;;;;;5.27;4.27;;;;;;;;;;5047439;28;20215;-65
2024/01/12 09:00:28;;;;;;;7.37;5.00;;;;;;;;;;5049360;28;20199;-65
2024/01/12 09:02:55;;;;;;;5.60;4.97;;;;;;;;;;5052935;28;20196;-64
2024/01/12 09:05:22;;;;;;;6.30;4.73;;;;;;;;;;5050971;28;20199;-63
2024/01/12 09:07:49;;;;;;;4.93;4.43;;;;;;;;;;5049677;28;20235;-64
2024/01/12 09:10:16;;;;;;;5.77;4.63;;;;;;;;;;5044734;28;20195;-66
2024/01/12 09:12:44;;;;;;;5.47;4.63;;;;;;;;;;5046584;28;20197;-63
2024/01/12 09:15:13;;;;;;;5.13;4.63;;;;;;;;;;5050808;28;20213;-64
2024/01/12 09:17:40;;;;;;;4.33;3.93;;;;;;;;;;5053738;28;20341;-64
2024/01/12 09:20:08;;;;;;;5.83;4.30;;;;;;;;;;5042670;28;20207;-63
2024/01/12 09:22:35;;;;;;;4.50;4.10;;;;;;;;;;5049613;28;20200;-64
2024/01/12 09:25:02;;;;;;;6.00;4.80;;;;;;;;;;5047103;28;20211;-64
2024/01/12 09:27:30;;;;;;;5.40;4.47;;;;;;;;;;5050747;28;20226;-65
2024/01/12 09:29:57;;;;;;;5.30;4.67;;;;;;;;;;5046564;28;20199;-64
2024/01/12 09:32:25;;;;;;;4.90;4.37;;;;;;;;;;5047200;28;20204;-64
2024/01/12 09:34:51;;;;;;;4.67;4.17;;;;;;;;;;5049975;28;20204;-63
2024/01/12 09:37:18;;;;;;;5.13;4.63;;;;;;;;;;5049433;28;20204;-64
2024/01/12 09:39:46;;;;;;;6.03;4.50;;;;;;;;;;5045880;28;20234;-63
2024/01/12 09:42:14;;;;;;;6.23;5.10;;;;;;;;;;5047492;28;20206;-64
2024/01/12 09:44:42;;;;;;;5.30;4.80;;;;;;;;;;5051017;28;20303;-63
2024/01/12 09:47:09;;;;;;;4.63;4.13;;;;;;;;;;5045738;28;20199;-62
2024/01/12 09:49:38;;;;;;;4.80;4.30;;;;;;;;;;5047122;28;20205;-63
2024/01/12 09:52:07;;;;;;;4.90;4.40;;;;;;;;;;5047698;28;20207;-64
2024/01/12 09:54:35;;;;;;;5.23;4.43;;;;;;;;;;5048583;28;20211;-64
2024/01/12 09:57:03;;;;;;;7.37;4.40;;;;;;;;;;5050881;28;20206;-63
2024/01/12 09:59:31;;;;;;;6.67;5.03;;;;;;;;;;5046841;28;20216;-65
2024/01/12 10:01:58;;;;;;;5.57;4.73;;;;;;;;;;5046086;28;20200;-63
2024/01/12 10:04:26;;;;;;;4.77;4.20;;;;;;;;;;5044304;28;20224;-63
2024/01/12 10:06:55;;;;;;;5.43;4.20;;;;;;;;;;5046569;28;20192;-64
2024/01/12 10:09:24;;;;;;;5.50;4.33;;;;;;;;;;5048607;28;20195;-65
2024/01/12 10:11:53;;;;;;;4.50;4.10;;;;;;;;;;5048020;28;20203;-65
2024/01/12 10:14:21;;;;;;;5.23;4.60;;;;;;;;;;5039693;28;20207;-70
2024/01/12 10:16:54;;;;;;;6.33;4.73;;;;;;;;;;5038780;28;20250;-70
2024/01/12 10:19:21;;;;;;;5.43;4.73;;;;;;;;;;5043706;28;20211;-70
2024/01/12 10:21:49;;;;;;;5.00;4.40;;;;;;;;;;5044692;28;20202;-70
2024/01/12 10:24:19;;;;;;;7.03;5.43;;;;;;;;;;5047462;28;20237;-64
2024/01/12 10:26:46;;;;;;;6.27;5.63;;;;;;;;;;5051306;28;20213;-64
2024/01/12 10:29:14;;;;;;;6.73;5.23;;;;;;;;;;5044069;28;20207;-65
2024/01/12 10:31:42;;;;;;;6.07;4.80;;;;;;;;;;5044634;28;20222;-64
2024/01/12 10:34:11;;;;;;;6.03;5.43;;;;;;;;;;5049636;28;20199;-64
2024/01/12 10:36:38;;;;;;;6.10;5.27;;;;;;;;;;5041536;28;20229;-64
2024/01/12 10:39:08;;;;;;;9.60;7.00;;;;;;;;;;5040492;28;20261;-64
2024/01/12 10:41:36;;;;;;;8.77;5.83;;;;;;;;;;5049046;28;20213;-65
2024/01/12 10:44:05;;;;;;;9.50;6.60;;;;;;;;;;5046222;28;20212;-64
2024/01/12 10:46:35;;;;;;;5.47;4.57;;;;;;;;;;5048825;28;20200;-64
2024/01/12 10:49:04;;;;;;;11.50;6.90;;;;;;;;;;5051949;28;20267;-64
2024/01/12 10:51:32;;;;;;;14.87;8.23;;;;;;;;;;5046689;28;20219;-64
2024/01/12 10:54:01;;;;;;;32.67;13.30;;;;;;;;;;5043963;28;20196;-64
2024/01/12 10:56:29;;;;;;;13.57;7.37;;;;;;;;;;5046950;28;20195;-64
2024/01/12 10:58:58;;;;;;;13.27;7.23;;;;;;;;;;5039968;28;20203;-64
2024/01/12 11:01:25;;;;;;;17.03;7.70;;;;;;;;;;5050511;28;20206;-64
2024/01/12 11:03:52;;;;;;;11.50;6.33;;;;;;;;;;5045403;28;20233;-64
2024/01/12 11:06:20;;;;;;;10.17;5.97;;;;;;;;;;5047508;28;20297;-64
2024/01/12 11:08:50;;;;;;;10.97;6.80;;;;;;;;;;5043899;28;20562;-65
2024/01/12 11:11:18;;;;;;;12.17;6.97;;;;;;;;;;5049550;28;20200;-63
2024/01/12 11:13:47;;;;;;;11.03;6.57;;;;;;;;;;5046411;28;20205;-63
2024/01/12 11:16:15;;;;;;;11.17;6.47;;;;;;;;;;5036363;28;20402;-63
2024/01/12 11:18:42;;;;;;;9.80;6.20;;;;;;;;;;5032432;28;20210;-64
2024/01/12 11:21:09;;;;;;;12.57;7.97;;;;;;;;;;5036884;28;20214;-63
2024/01/12 11:23:40;;;;;;;8.93;6.20;;;;;;;;;;5031406;28;20214;-63
2024/01/12 11:26:07;;;;;;;8.00;5.30;;;;;;;;;;5033608;28;20211;-63
2024/01/12 11:28:38;;;;;;;9.93;6.30;;;;;;;;;;5034956;28;20208;-63
2024/01/12 11:31:06;;;;;;;6.43;5.00;;;;;;;;;;5033936;28;20200;-62
2024/01/12 11:33:41;;;;;;;7.47;5.43;;;;;;;;;;5033835;28;20208;-69
2024/01/12 11:36:14;;;;;;;7.10;5.97;;;;;;;;;;5030569;28;20199;-69
2024/01/12 11:38:42;;;;;;;7.07;5.70;;;;;;;;;;5033932;28;20227;-67
2024/01/12 11:41:11;;;;;;;6.50;5.27;;;;;;;;;;5036208;28;20226;-68
2024/01/12 11:43:39;;;;;;;8.23;5.60;;;;;;;;;;5031888;28;20203;-68
2024/01/12 11:46:06;;;;;;;10.47;8.10;;;;;;;;;;5031731;28;20222;-68
2024/01/12 11:48:34;;;;;;;13.37;12.07;;;;;;;;;;5031512;28;20207;-68
2024/01/12 11:51:03;;;;;;;8.03;7.07;;;;;;;;;;5030963;28;20211;-68
2024/01/12 11:53:33;;;;;;;7.70;6.23;;;;;;;;;;5031507;28;20215;-69
2024/01/12 11:56:00;;;;;;;6.73;5.13;;;;;;;;;;5032827;28;20200;-68
2024/01/12 11:58:29;;;;;;;7.37;5.77;;;;;;;;;;5033830;28;20211;-68
2024/01/12 12:00:56;;;;;;;6.67;5.53;;;;;;;;;;5031465;28;20203;-68
2024/01/12 12:03:24;;;;;;;7.23;5.40;;;;;;;;;;5027789;28;20238;-67
2024/01/12 12:05:51;;;;;;;5.63;5.00;;;;;;;;;;5029040;28;20216;-68
2024/01/12 12:08:19;;;;;;;9.57;6.37;;;;;;;;;;5032114;28;20204;-68
2024/01/12 12:10:47;;;;;;;6.60;5.67;;;;;;;;;;5039063;28;20203;-68
2024/01/12 12:13:15;;;;;;;6.90;5.33;;;;;;;;;;5044021;28;20253;-68
2024/01/12 12:15:42;;;;;;;6.40;5.20;;;;;;;;;;5043000;28;20196;-70
2024/01/12 12:18:09;;;;;;;7.63;6.00;;;;;;;;;;5039008;28;20213;-68
2024/01/12 12:20:36;;;;;;;7.27;5.50;;;;;;;;;;5037997;28;20212;-68
2024/01/12 12:23:03;;;;;;;7.10;6.37;;;;;;;;;;5046660;28;20293;-67
2024/01/12 12:25:32;;;;;;;6.53;5.77;;;;;;;;;;5047134;28;20302;-68
2024/01/12 12:27:59;;;;;;;7.83;6.07;;;;;;;;;;5037721;28;20286;-68
2024/01/12 12:30:29;;;;;;;7.23;5.83;;;;;;;;;;5041621;28;20289;-68
2024/01/12 12:32:59;;;;;;;8.93;6.70;;;;;;;;;;5037548;28;20879;-68
2024/01/12 12:35:26;;;;;;;25.37;10.80;;;;;;;;;;5040807;28;20253;-68
2024/01/12 12:37:53;;;;;;;12.23;7.50;;;;;;;;;;5042528;28;20218;-68
2024/01/12 12:40:21;;;;;;;8.80;6.83;;;;;;;;;;5034602;28;20207;-67
2024/01/12 12:42:50;;;;;;;7.73;6.10;;;;;;;;;;5040345;28;20207;-64
2024/01/12 12:45:17;;;;;;;7.80;5.57;;;;;;;;;;5039167;28;20523;-64
2024/01/12 12:47:45;;;;;;;13.40;8.37;;;;;;;;;;5046845;28;20235;-63
2024/01/12 12:50:13;;;;;;;13.47;8.80;;;;;;;;;;5037789;28;20203;-63
2024/01/12 12:52:41;;;;;;;13.30;8.53;;;;;;;;;;5036190;28;20378;-63
2024/01/12 12:55:09;;;;;;;9.93;7.57;;;;;;;;;;5037414;28;20203;-62
2024/01/12 12:57:36;;;;;;;8.60;6.07;;;;;;;;;;5037790;28;20267;-64
2024/01/12 13:00:07;;;;;;;8.57;6.53;;;;;;;;;;5035618;28;20250;-63
2024/01/12 13:02:34;;;;;;;10.37;7.17;;;;;;;;;;5033203;28;20227;-63
2024/01/12 13:05:01;;;;;;;9.70;7.17;;;;;;;;;;5044578;28;20219;-62
2024/01/12 13:07:28;;;;;;;12.07;7.80;;;;;;;;;;5038421;28;20207;-64
2024/01/12 13:09:55;;;;;;;11.70;8.03;;;;;;;;;;5038891;28;20294;-63
2024/01/12 13:12:23;;;;;;;8.13;6.40;;;;;;;;;;5030666;28;20199;-63
2024/01/12 13:14:51;;;;;;;9.73;7.23;;;;;;;;;;5030453;28;20207;-64
2024/01/12 13:17:20;;;;;;;14.30;8.50;;;;;;;;;;5025328;28;20215;-64
2024/01/12 13:19:47;;;;;;;16.23;9.67;;;;;;;;;;5025430;28;20311;-64
2024/01/12 13:22:14;;;;;;;20.13;10.80;;;;;;;;;;5029387;28;20203;-66
2024/01/12 13:24:41;;;;;;;7.33;6.20;;;;;;;;;;5024198;28;20226;-63
2024/01/12 13:27:09;;;;;;;7.47;6.03;;;;;;;;;;5026249;28;20203;-64
2024/01/12 13:29:36;;;;;;;8.17;6.80;;;;;;;;;;5025668;28;20318;-62
2024/01/12 13:32:03;;;;;;;8.43;6.80;;;;;;;;;;5030911;28;20222;-63
2024/01/12 13:34:32;;;;;;;8.37;6.57;;;;;;;;;;5032159;28;20199;-63
2024/01/12 13:37:01;;;;;;;7.57;6.23;;;;;;;;;;5039572;28;20203;-62
2024/01/12 13:39:28;;;;;;;5.97;5.23;;;;;;;;;;5028864;28;20243;-64
2024/01/12 13:41:55;;;;;;;5.60;5.00;;;;;;;;;;5037270;28;20203;-63
2024/01/12 13:44:22;;;;;;;6.67;5.93;;;;;;;;;;5043270;28;20208;-62
2024/01/12 13:46:49;;;;;;;7.23;5.37;;;;;;;;;;5043225;28;20234;-63
2024/01/12 13:49:16;;;;;;;10.07;6.80;;;;;;;;;;5047869;28;20215;-63
2024/01/12 13:51:45;;;;;;;10.80;7.40;;;;;;;;;;5043959;28;20294;-63
2024/01/12 13:54:14;;;;;;;13.10;7.43;;;;;;;;;;5041083;28;20202;-63
2024/01/12 13:56:41;;;;;;;14.27;8.07;;;;;;;;;;5043853;28;20235;-63
2024/01/12 13:59:08;;;;;;;35.67;12.37;;;;;;;;;;5034062;28;20208;-62
2024/01/12 14:01:35;;;;;;;24.33;9.50;;;;;;;;;;5039535;28;20206;-64
2024/01/12 14:04:03;;;;;;;11.53;7.13;;;;;;;;;;5039347;28;20207;-63
2024/01/12 14:06:31;;;;;;;8.27;6.10;;;;;;;;;;5046603;28;20220;-63
2024/01/12 14:08:59;;;;;;;6.00;5.33;;;;;;;;;;5040180;28;20203;-63
2024/01/12 14:11:27;;;;;;;7.07;5.70;;;;;;;;;;5046170;28;20208;-63
2024/01/12 14:13:56;;;;;;;9.33;7.17;;;;;;;;;;5047525;28;20212;-63
2024/01/12 14:16:23;;;;;;;10.60;8.20;;;;;;;;;;5046642;28;20200;-62
2024/01/12 14:18:50;;;;;;;7.77;6.63;;;;;;;;;;5043622;28;20211;-62
2024/01/12 14:21:17;;;;;;;6.20;5.60;;;;;;;;;;5044255;28;20227;-63
2024/01/12 14:23:44;;;;;;;5.97;5.37;;;;;;;;;;5044805;28;20203;-63
2024/01/12 14:26:13;;;;;;;5.57;4.97;;;;;;;;;;5043106;28;20216;-63
2024/01/12 14:28:41;;;;;;;5.20;4.70;;;;;;;;;;5043741;28;20210;-63
2024/01/12 14:31:08;;;;;;;5.80;5.20;;;;;;;;;;5046821;28;20291;-63
2024/01/12 14:33:35;;;;;;;6.60;5.63;;;;;;;;;;5045257;28;20208;-63
2024/01/12 14:36:03;;;;;;;6.90;5.93;;;;;;;;;;5040689;28;20199;-63